DAL529 MROC-KATL
Flight info
| Callsign | DAL529 |
|---|---|
| Flight time | N/A |
| Altitude | 40000 |
| Route | NANJO3U ULAPO DCT MGA UZ498 BTO UB881 ANIKO/N0477F390 UB881 CZM DCT CUN/N0424F190 M219 MYDIA/N0477F390 M219 CIGAR DCT SZW/N0472F400 DCT DAWWN DCT BEORN HOBTT3 |
| Aircraft | A339/H-SADE1E2E3GHIJ3J5M1P2RWXY/LB2D1 |
Departure
| Time | 2026-04-28 22:59 |
|---|---|
| Airport | Juan Santamaría International Airport (MROC) |
Arrival
| Time | N/A |
|---|---|
| Airport | Hartsfield Jackson Atlanta International Airport (KATL) |
| Time | Latitude | Longitude | Altitude | Speed | Heading |
|---|---|---|---|---|---|
| 2026-04-28 22:37 | 9.99684 | -84.20544 | 3106 ft | 0 kts | 338° |
| 2026-04-28 22:47 | 9.99674 | -84.20540 | 3106 ft | 2 kts | 338° |
| 2026-04-28 22:47 | 9.99659 | -84.20534 | 3106 ft | 1 kts | 338° |
| 2026-04-28 22:48 | 9.99651 | -84.20531 | 3106 ft | 2 kts | 332° |
| 2026-04-28 22:48 | 9.99639 | -84.20521 | 3106 ft | 2 kts | 302° |
| 2026-04-28 22:48 | 9.99633 | -84.20507 | 3106 ft | 2 kts | 279° |
| 2026-04-28 22:48 | 9.99633 | -84.20492 | 3106 ft | 2 kts | 255° |
| 2026-04-28 22:49 | 9.99634 | -84.20489 | 3106 ft | 1 kts | 250° |
| 2026-04-28 22:49 | 9.99626 | -84.20512 | 3106 ft | 3 kts | 250° |
| 2026-04-28 22:49 | 9.99618 | -84.20534 | 3106 ft | 1 kts | 249° |
| 2026-04-28 22:49 | 9.99617 | -84.20536 | 3106 ft | 0 kts | 249° |
| 2026-04-28 22:52 | 9.99615 | -84.20541 | 3106 ft | 1 kts | 249° |
| 2026-04-28 22:52 | 9.99605 | -84.20569 | 3106 ft | 6 kts | 249° |
| 2026-04-28 22:53 | 9.99583 | -84.20625 | 3106 ft | 10 kts | 249° |
| 2026-04-28 22:53 | 9.99553 | -84.20705 | 3106 ft | 13 kts | 249° |
| 2026-04-28 22:53 | 9.99519 | -84.20796 | 3106 ft | 13 kts | 249° |
| 2026-04-28 22:53 | 9.99484 | -84.20887 | 3105 ft | 14 kts | 249° |
| 2026-04-28 22:54 | 9.99449 | -84.20981 | 3105 ft | 14 kts | 249° |
| 2026-04-28 22:54 | 9.99414 | -84.21075 | 3105 ft | 14 kts | 249° |
| 2026-04-28 22:54 | 9.99378 | -84.21171 | 3105 ft | 14 kts | 249° |
| 2026-04-28 22:54 | 9.99342 | -84.21268 | 3104 ft | 14 kts | 249° |
| 2026-04-28 22:55 | 9.99306 | -84.21366 | 3104 ft | 14 kts | 249° |
| 2026-04-28 22:55 | 9.99269 | -84.21464 | 3104 ft | 14 kts | 249° |
| 2026-04-28 22:55 | 9.99232 | -84.21562 | 3103 ft | 15 kts | 249° |
| 2026-04-28 22:55 | 9.99195 | -84.21662 | 3103 ft | 15 kts | 249° |
| 2026-04-28 22:56 | 9.99158 | -84.21762 | 3103 ft | 15 kts | 249° |
| 2026-04-28 22:56 | 9.99120 | -84.21863 | 3103 ft | 15 kts | 249° |
| 2026-04-28 22:56 | 9.99098 | -84.21965 | 3102 ft | 14 kts | 276° |
| 2026-04-28 22:56 | 9.99103 | -84.22063 | 3102 ft | 13 kts | 260° |
| 2026-04-28 22:57 | 9.99072 | -84.22153 | 3102 ft | 13 kts | 244° |
| 2026-04-28 22:57 | 9.98997 | -84.22194 | 3102 ft | 13 kts | 168° |
| 2026-04-28 22:57 | 9.98930 | -84.22169 | 3102 ft | 6 kts | 158° |
| 2026-04-28 22:57 | 9.98919 | -84.22153 | 3102 ft | 3 kts | 92° |
| 2026-04-28 22:58 | 9.98926 | -84.22124 | 3102 ft | 4 kts | 70° |
| 2026-04-28 22:58 | 9.98952 | -84.22053 | 3102 ft | 25 kts | 70° |
| 2026-04-28 22:58 | 9.99095 | -84.21670 | 3103 ft | 88 kts | 69° |
| 2026-04-28 22:58 | 9.99378 | -84.20910 | 3106 ft | 140 kts | 69° |
| 2026-04-28 22:59 | 9.99768 | -84.19867 | 3304 ft | 166 kts | 69° |
| 2026-04-28 22:59 | 10.00202 | -84.18823 | 3919 ft | 159 kts | 53° |
| 2026-04-28 22:59 | 10.01123 | -84.18291 | 4505 ft | 159 kts | 5° |
| 2026-04-28 22:59 | 10.02211 | -84.18557 | 4927 ft | 168 kts | 327° |
| 2026-04-28 23:00 | 10.03126 | -84.19308 | 5273 ft | 169 kts | 322° |
| 2026-04-28 23:00 | 10.04015 | -84.20102 | 5598 ft | 171 kts | 322° |
| 2026-04-28 23:00 | 10.04926 | -84.20904 | 5875 ft | 177 kts | 320° |
| 2026-04-28 23:00 | 10.05672 | -84.21938 | 6083 ft | 192 kts | 296° |
| 2026-04-28 23:01 | 10.06180 | -84.23239 | 6309 ft | 205 kts | 292° |
| 2026-04-28 23:01 | 10.06676 | -84.24660 | 6545 ft | 218 kts | 291° |
| 2026-04-28 23:01 | 10.07194 | -84.26141 | 6776 ft | 231 kts | 292° |
| 2026-04-28 23:01 | 10.07762 | -84.27720 | 7020 ft | 245 kts | 292° |
| 2026-04-28 23:02 | 10.08370 | -84.29382 | 7284 ft | 261 kts | 292° |
| 2026-04-28 23:02 | 10.09028 | -84.31175 | 7566 ft | 277 kts | 292° |
| 2026-04-28 23:02 | 10.09714 | -84.33040 | 7917 ft | 290 kts | 292° |
| 2026-04-28 23:02 | 10.10565 | -84.34911 | 8482 ft | 293 kts | 305° |
| 2026-04-28 23:03 | 10.11890 | -84.36446 | 9114 ft | 292 kts | 321° |
| 2026-04-28 23:03 | 10.13488 | -84.37741 | 9768 ft | 295 kts | 323° |
| 2026-04-28 23:03 | 10.15114 | -84.39022 | 10354 ft | 298 kts | 323° |
| 2026-04-28 23:03 | 10.16779 | -84.40327 | 10687 ft | 312 kts | 324° |
| 2026-04-28 23:04 | 10.18548 | -84.41707 | 10986 ft | 327 kts | 323° |
| 2026-04-28 23:04 | 10.22321 | -84.44684 | 11502 ft | 358 kts | 323° |
| 2026-04-28 23:04 | 10.24335 | -84.46284 | 11738 ft | 373 kts | 323° |
| 2026-04-28 23:05 | 10.26403 | -84.47931 | 11980 ft | 386 kts | 323° |
| 2026-04-28 23:05 | 10.28551 | -84.49643 | 12443 ft | 392 kts | 323° |
| 2026-04-28 23:05 | 10.30677 | -84.51337 | 12844 ft | 394 kts | 323° |
| 2026-04-28 23:05 | 10.32838 | -84.53059 | 12993 ft | 394 kts | 322° |
| 2026-04-28 23:06 | 10.35012 | -84.54793 | 13006 ft | 395 kts | 322° |
| 2026-04-28 23:06 | 10.37203 | -84.56538 | 13280 ft | 401 kts | 322° |
| 2026-04-28 23:06 | 10.39374 | -84.58270 | 13919 ft | 401 kts | 322° |
| 2026-04-28 23:06 | 10.41573 | -84.60025 | 14521 ft | 402 kts | 322° |
| 2026-04-28 23:07 | 10.43787 | -84.61790 | 15067 ft | 404 kts | 322° |
| 2026-04-28 23:07 | 10.45987 | -84.63545 | 15569 ft | 407 kts | 322° |
| 2026-04-28 23:07 | 10.48239 | -84.65342 | 16085 ft | 410 kts | 322° |
| 2026-04-28 23:07 | 10.50494 | -84.67139 | 16583 ft | 413 kts | 322° |
| 2026-04-28 23:08 | 10.52770 | -84.68955 | 17078 ft | 416 kts | 323° |
| 2026-04-28 23:08 | 10.55060 | -84.70782 | 17568 ft | 419 kts | 323° |
| 2026-04-28 23:08 | 10.57339 | -84.72598 | 18040 ft | 423 kts | 322° |
| 2026-04-28 23:08 | 10.59668 | -84.74455 | 18498 ft | 426 kts | 322° |
| 2026-04-28 23:09 | 10.62013 | -84.76325 | 18945 ft | 429 kts | 322° |
| 2026-04-28 23:09 | 10.64376 | -84.78212 | 19389 ft | 433 kts | 322° |
| 2026-04-28 23:09 | 10.66755 | -84.80136 | 19823 ft | 437 kts | 320° |
| 2026-04-28 23:09 | 10.69038 | -84.82167 | 20248 ft | 440 kts | 317° |
| 2026-04-28 23:10 | 10.71259 | -84.84312 | 20671 ft | 444 kts | 316° |
| 2026-04-28 23:10 | 10.73510 | -84.86518 | 21095 ft | 447 kts | 315° |
| 2026-04-28 23:10 | 10.75756 | -84.88728 | 21506 ft | 451 kts | 315° |
| 2026-04-28 23:10 | 10.77997 | -84.90930 | 21914 ft | 454 kts | 315° |
| 2026-04-28 23:11 | 10.80298 | -84.93190 | 22320 ft | 457 kts | 315° |
| 2026-04-28 23:11 | 10.82587 | -84.95438 | 22700 ft | 461 kts | 315° |
| 2026-04-28 23:11 | 10.84913 | -84.97723 | 23109 ft | 463 kts | 315° |
| 2026-04-28 23:11 | 10.87227 | -84.99992 | 23525 ft | 465 kts | 315° |
| 2026-04-28 23:12 | 10.89543 | -85.02264 | 23920 ft | 468 kts | 314° |
| 2026-04-28 23:12 | 10.91892 | -85.04569 | 24312 ft | 470 kts | 314° |
| 2026-04-28 23:12 | 10.94252 | -85.06889 | 24693 ft | 472 kts | 314° |
| 2026-04-28 23:12 | 10.96629 | -85.09225 | 25073 ft | 474 kts | 314° |
| 2026-04-28 23:13 | 10.98987 | -85.11543 | 25435 ft | 476 kts | 314° |
| 2026-04-28 23:13 | 11.01382 | -85.13899 | 25781 ft | 478 kts | 314° |
| 2026-04-28 23:13 | 11.03797 | -85.16272 | 26113 ft | 481 kts | 314° |
| 2026-04-28 23:13 | 11.06247 | -85.18590 | 26429 ft | 484 kts | 315° |
| 2026-04-28 23:14 | 11.08736 | -85.20870 | 26755 ft | 486 kts | 315° |
| 2026-04-28 23:14 | 11.11254 | -85.23164 | 27065 ft | 488 kts | 315° |
| 2026-04-28 23:14 | 11.13811 | -85.25491 | 27361 ft | 490 kts | 315° |
| 2026-04-28 23:14 | 11.16341 | -85.27798 | 27660 ft | 492 kts | 315° |
| 2026-04-28 23:15 | 11.18909 | -85.30140 | 27958 ft | 494 kts | 315° |
| 2026-04-28 23:15 | 11.21449 | -85.32458 | 28279 ft | 494 kts | 314° |
| 2026-04-28 23:15 | 11.24027 | -85.34811 | 28720 ft | 492 kts | 314° |
| 2026-04-28 23:15 | 11.26545 | -85.37111 | 29184 ft | 490 kts | 314° |
| 2026-04-28 23:16 | 11.29096 | -85.39445 | 29631 ft | 489 kts | 314° |
| 2026-04-28 23:16 | 11.31613 | -85.41748 | 30050 ft | 488 kts | 314° |
| 2026-04-28 23:16 | 11.34154 | -85.44076 | 30457 ft | 487 kts | 314° |
| 2026-04-28 23:16 | 11.36665 | -85.46375 | 30863 ft | 486 kts | 314° |
| 2026-04-28 23:17 | 11.39162 | -85.48660 | 31259 ft | 485 kts | 314° |
| 2026-04-28 23:17 | 11.41688 | -85.50973 | 31660 ft | 485 kts | 314° |
| 2026-04-28 23:17 | 11.44173 | -85.53249 | 32051 ft | 484 kts | 314° |
| 2026-04-28 23:17 | 11.46694 | -85.55558 | 32446 ft | 483 kts | 314° |
| 2026-04-28 23:18 | 11.49190 | -85.57845 | 32859 ft | 482 kts | 314° |
| 2026-04-28 23:18 | 11.51680 | -85.60126 | 33301 ft | 481 kts | 314° |
| 2026-04-28 23:18 | 11.54154 | -85.62395 | 33767 ft | 480 kts | 314° |
| 2026-04-28 23:18 | 11.56617 | -85.64653 | 34240 ft | 478 kts | 314° |
| 2026-04-28 23:19 | 11.59108 | -85.66938 | 34723 ft | 475 kts | 314° |
| 2026-04-28 23:19 | 11.61528 | -85.69159 | 35194 ft | 473 kts | 314° |
| 2026-04-28 23:19 | 11.63992 | -85.71420 | 35649 ft | 471 kts | 314° |
| 2026-04-28 23:19 | 11.66417 | -85.73646 | 36057 ft | 470 kts | 314° |
| 2026-04-28 23:20 | 11.68829 | -85.75861 | 36433 ft | 469 kts | 314° |
| 2026-04-28 23:20 | 11.71271 | -85.78103 | 36788 ft | 468 kts | 314° |
| 2026-04-28 23:20 | 11.73673 | -85.80309 | 37126 ft | 467 kts | 314° |
| 2026-04-28 23:20 | 11.76084 | -85.82526 | 37455 ft | 466 kts | 314° |
| 2026-04-28 23:21 | 11.78482 | -85.84729 | 37772 ft | 465 kts | 314° |
| 2026-04-28 23:21 | 11.80909 | -85.86961 | 38077 ft | 465 kts | 314° |
| 2026-04-28 23:21 | 11.83306 | -85.89164 | 38357 ft | 464 kts | 314° |
| 2026-04-28 23:21 | 11.85692 | -85.91358 | 38580 ft | 465 kts | 314° |
| 2026-04-28 23:22 | 11.88114 | -85.93587 | 38787 ft | 466 kts | 314° |
| 2026-04-28 23:22 | 11.90508 | -85.95790 | 38997 ft | 467 kts | 314° |
| 2026-04-28 23:22 | 11.92923 | -85.98013 | 39220 ft | 467 kts | 314° |
| 2026-04-28 23:22 | 11.95347 | -86.00245 | 39435 ft | 467 kts | 314° |
| 2026-04-28 23:23 | 11.97761 | -86.02468 | 39644 ft | 467 kts | 315° |
| 2026-04-28 23:23 | 12.00147 | -86.04667 | 39826 ft | 468 kts | 315° |
| 2026-04-28 23:23 | 12.05009 | -86.09145 | 39890 ft | 470 kts | 314° |
| 2026-04-28 23:24 | 12.10131 | -86.13354 | 39897 ft | 474 kts | 323° |
| 2026-04-28 23:24 | 12.15893 | -86.16650 | 39892 ft | 479 kts | 332° |
| 2026-04-28 23:25 | 12.22217 | -86.18921 | 39882 ft | 483 kts | 343° |
| 2026-04-28 23:25 | 12.28804 | -86.20284 | 39875 ft | 485 kts | 347° |
| 2026-04-28 23:26 | 12.35456 | -86.21516 | 39874 ft | 484 kts | 347° |
| 2026-04-28 23:26 | 12.42104 | -86.22757 | 39890 ft | 484 kts | 346° |
| 2026-04-28 23:27 | 12.48763 | -86.24012 | 39891 ft | 484 kts | 346° |
| 2026-04-28 23:27 | 12.55400 | -86.25269 | 39894 ft | 484 kts | 346° |
| 2026-04-28 23:28 | 12.62002 | -86.26520 | 39908 ft | 484 kts | 346° |
| 2026-04-28 23:28 | 12.68636 | -86.27777 | 39926 ft | 484 kts | 346° |
| 2026-04-28 23:29 | 12.75259 | -86.29033 | 39942 ft | 483 kts | 346° |
| 2026-04-28 23:29 | 12.81885 | -86.30292 | 39965 ft | 483 kts | 346° |
| 2026-04-28 23:30 | 12.88550 | -86.31559 | 39971 ft | 483 kts | 346° |
| 2026-04-28 23:30 | 12.95147 | -86.32812 | 39982 ft | 483 kts | 346° |
| 2026-04-28 23:31 | 13.01758 | -86.34070 | 39995 ft | 483 kts | 346° |
| 2026-04-28 23:31 | 13.08408 | -86.35335 | 40025 ft | 483 kts | 347° |
| 2026-04-28 23:32 | 13.15001 | -86.36591 | 40045 ft | 482 kts | 347° |
| 2026-04-28 23:32 | 13.21619 | -86.37852 | 40069 ft | 482 kts | 347° |
| 2026-04-28 23:33 | 13.28186 | -86.39102 | 40087 ft | 481 kts | 347° |
| 2026-04-28 23:33 | 13.34800 | -86.40363 | 40086 ft | 482 kts | 347° |
| 2026-04-28 23:34 | 13.41401 | -86.41624 | 40075 ft | 481 kts | 347° |
| 2026-04-28 23:34 | 13.47992 | -86.42883 | 40054 ft | 481 kts | 347° |
| 2026-04-28 23:35 | 13.54617 | -86.44148 | 40052 ft | 481 kts | 347° |
| 2026-04-28 23:35 | 13.61167 | -86.45401 | 40069 ft | 481 kts | 347° |
| 2026-04-28 23:36 | 13.67787 | -86.46667 | 40095 ft | 480 kts | 347° |
| 2026-04-28 23:36 | 13.74359 | -86.47923 | 40114 ft | 480 kts | 347° |
| 2026-04-28 23:37 | 13.80916 | -86.49178 | 40129 ft | 480 kts | 347° |
| 2026-04-28 23:37 | 13.87509 | -86.50441 | 40135 ft | 479 kts | 347° |
| 2026-04-28 23:38 | 13.94084 | -86.51702 | 40128 ft | 480 kts | 347° |
| 2026-04-28 23:38 | 14.00664 | -86.52963 | 40124 ft | 480 kts | 347° |
| 2026-04-28 23:39 | 14.07234 | -86.54224 | 40123 ft | 480 kts | 347° |
| 2026-04-28 23:39 | 14.13814 | -86.55489 | 40121 ft | 479 kts | 348° |
| 2026-04-28 23:40 | 14.20344 | -86.56741 | 40112 ft | 479 kts | 348° |
| 2026-04-28 23:40 | 14.26916 | -86.58005 | 40102 ft | 479 kts | 348° |
| 2026-04-28 23:41 | 14.33498 | -86.59270 | 40090 ft | 480 kts | 348° |
| 2026-04-28 23:41 | 14.40072 | -86.60536 | 40084 ft | 479 kts | 348° |
| 2026-04-28 23:42 | 14.46648 | -86.61802 | 40080 ft | 480 kts | 348° |
| 2026-04-28 23:42 | 14.53224 | -86.63068 | 40077 ft | 479 kts | 348° |
| 2026-04-28 23:43 | 14.59808 | -86.64337 | 40081 ft | 480 kts | 348° |
| 2026-04-28 23:43 | 14.66368 | -86.65604 | 40081 ft | 479 kts | 348° |
| 2026-04-28 23:44 | 14.72905 | -86.66864 | 40084 ft | 478 kts | 348° |
| 2026-04-28 23:44 | 14.79455 | -86.68130 | 40091 ft | 478 kts | 348° |
| 2026-04-28 23:45 | 14.86016 | -86.69398 | 40104 ft | 478 kts | 348° |
| 2026-04-28 23:45 | 14.92551 | -86.70664 | 40108 ft | 478 kts | 348° |
| 2026-04-28 23:46 | 14.99093 | -86.71930 | 40113 ft | 478 kts | 348° |
| 2026-04-28 23:46 | 15.05666 | -86.73202 | 40105 ft | 478 kts | 348° |
| 2026-04-28 23:47 | 15.12187 | -86.74464 | 40103 ft | 477 kts | 348° |
| 2026-04-28 23:47 | 15.18722 | -86.75730 | 40086 ft | 476 kts | 348° |
| 2026-04-28 23:48 | 15.25260 | -86.76998 | 40085 ft | 476 kts | 348° |
| 2026-04-28 23:48 | 15.31769 | -86.78262 | 40088 ft | 475 kts | 348° |
| 2026-04-28 23:49 | 15.38296 | -86.79529 | 40111 ft | 475 kts | 348° |
| 2026-04-28 23:49 | 15.44809 | -86.80795 | 40127 ft | 476 kts | 348° |
| 2026-04-28 23:50 | 15.51343 | -86.82065 | 40121 ft | 477 kts | 348° |
| 2026-04-28 23:50 | 15.57841 | -86.83330 | 40075 ft | 476 kts | 348° |
| 2026-04-28 23:51 | 15.64361 | -86.84598 | 40031 ft | 475 kts | 348° |
| 2026-04-28 23:51 | 15.70904 | -86.85796 | 39993 ft | 476 kts | 351° |
| 2026-04-28 23:52 | 15.77491 | -86.86385 | 39966 ft | 477 kts | 356° |
| 2026-04-28 23:52 | 15.84127 | -86.86420 | 39957 ft | 477 kts | 358° |
| 2026-04-28 23:53 | 15.90789 | -86.86391 | 39953 ft | 477 kts | 359° |
| 2026-04-28 23:53 | 15.97442 | -86.86369 | 39949 ft | 477 kts | 359° |
| 2026-04-28 23:54 | 16.04084 | -86.86351 | 39944 ft | 477 kts | 359° |
| 2026-04-28 23:54 | 16.10762 | -86.86337 | 39940 ft | 477 kts | 359° |
| 2026-04-28 23:55 | 16.17420 | -86.86414 | 39933 ft | 477 kts | 357° |
| 2026-04-28 23:55 | 16.24039 | -86.86532 | 39933 ft | 477 kts | 358° |
| 2026-04-28 23:56 | 16.30662 | -86.86643 | 39935 ft | 476 kts | 357° |
| 2026-04-28 23:56 | 16.37349 | -86.86750 | 39933 ft | 477 kts | 357° |
| 2026-04-28 23:57 | 16.43983 | -86.86854 | 39933 ft | 479 kts | 358° |
| 2026-04-28 23:57 | 16.50656 | -86.86957 | 39935 ft | 479 kts | 358° |
| 2026-04-28 23:58 | 16.57319 | -86.87062 | 39939 ft | 478 kts | 358° |
| 2026-04-28 23:58 | 16.64009 | -86.87166 | 39938 ft | 478 kts | 358° |
| 2026-04-28 23:59 | 16.70670 | -86.87266 | 39939 ft | 478 kts | 358° |
| 2026-04-28 23:59 | 16.77323 | -86.87370 | 39941 ft | 479 kts | 358° |
| 2026-04-29 00:00 | 16.84001 | -86.87473 | 39941 ft | 480 kts | 358° |
| 2026-04-29 00:00 | 16.90687 | -86.87577 | 39944 ft | 480 kts | 358° |
| 2026-04-29 00:01 | 16.97400 | -86.87684 | 39944 ft | 480 kts | 358° |
| 2026-04-29 00:01 | 17.04083 | -86.87792 | 39946 ft | 479 kts | 358° |
| 2026-04-29 00:02 | 17.10759 | -86.87897 | 39947 ft | 478 kts | 358° |
| 2026-04-29 00:02 | 17.17431 | -86.87999 | 39957 ft | 479 kts | 358° |
| 2026-04-29 00:03 | 17.24081 | -86.88103 | 39967 ft | 478 kts | 358° |
| 2026-04-29 00:03 | 17.30767 | -86.88208 | 39973 ft | 478 kts | 358° |
| 2026-04-29 00:04 | 17.37394 | -86.88314 | 39976 ft | 476 kts | 358° |
| 2026-04-29 00:04 | 17.44033 | -86.88419 | 39975 ft | 476 kts | 358° |
| 2026-04-29 00:05 | 17.50643 | -86.88523 | 39975 ft | 474 kts | 358° |
| 2026-04-29 00:05 | 17.57276 | -86.88625 | 39978 ft | 473 kts | 358° |
| 2026-04-29 00:06 | 17.63843 | -86.88731 | 39981 ft | 472 kts | 358° |
| 2026-04-29 00:06 | 17.70407 | -86.88834 | 39978 ft | 471 kts | 358° |
| 2026-04-29 00:07 | 17.76963 | -86.88937 | 39976 ft | 470 kts | 358° |
| 2026-04-29 00:07 | 17.83479 | -86.89038 | 39972 ft | 467 kts | 358° |
| 2026-04-29 00:08 | 17.90027 | -86.89140 | 39963 ft | 467 kts | 358° |
| 2026-04-29 00:08 | 17.96513 | -86.89234 | 39963 ft | 467 kts | 358° |
| 2026-04-29 00:09 | 18.03013 | -86.89320 | 39974 ft | 467 kts | 358° |
| 2026-04-29 00:09 | 18.09541 | -86.89406 | 39976 ft | 466 kts | 358° |
| 2026-04-29 00:10 | 18.16014 | -86.89491 | 39971 ft | 466 kts | 358° |
| 2026-04-29 00:10 | 18.22512 | -86.89578 | 39976 ft | 466 kts | 358° |
| 2026-04-29 00:11 | 18.29014 | -86.89663 | 39977 ft | 465 kts | 358° |
| 2026-04-29 00:12 | 18.38715 | -86.89789 | 39978 ft | 465 kts | 358° |
| 2026-04-29 00:12 | 18.45193 | -86.89875 | 39985 ft | 465 kts | 358° |
| 2026-04-29 00:13 | 18.51665 | -86.89959 | 39984 ft | 463 kts | 358° |
| 2026-04-29 00:13 | 18.58090 | -86.90042 | 39977 ft | 463 kts | 358° |
| 2026-04-29 00:14 | 18.64581 | -86.90131 | 39989 ft | 464 kts | 358° |
| 2026-04-29 00:14 | 18.71014 | -86.90206 | 39981 ft | 464 kts | 358° |
| 2026-04-29 00:15 | 18.77478 | -86.90290 | 39987 ft | 463 kts | 358° |
| 2026-04-29 00:15 | 18.83941 | -86.90378 | 39986 ft | 463 kts | 359° |
| 2026-04-29 00:16 | 18.90342 | -86.90450 | 39992 ft | 462 kts | 359° |
| 2026-04-29 00:16 | 18.96799 | -86.90527 | 39988 ft | 462 kts | 358° |
| 2026-04-29 00:17 | 19.03202 | -86.90623 | 39993 ft | 462 kts | 358° |
| 2026-04-29 00:17 | 19.09641 | -86.90682 | 39988 ft | 462 kts | 359° |
| 2026-04-29 00:18 | 19.16080 | -86.90694 | 39989 ft | 461 kts | 359° |
| 2026-04-29 00:18 | 19.22510 | -86.90709 | 39988 ft | 461 kts | 359° |
| 2026-04-29 00:19 | 19.28938 | -86.90741 | 39987 ft | 460 kts | 359° |
| 2026-04-29 00:19 | 19.35348 | -86.90766 | 39986 ft | 460 kts | 359° |
| 2026-04-29 00:20 | 19.41754 | -86.90783 | 39985 ft | 462 kts | 359° |
| 2026-04-29 00:20 | 19.48190 | -86.90808 | 39988 ft | 462 kts | 359° |
| 2026-04-29 00:21 | 19.54613 | -86.90832 | 39987 ft | 461 kts | 358° |
| 2026-04-29 00:21 | 19.61044 | -86.90855 | 39991 ft | 461 kts | 358° |
| 2026-04-29 00:22 | 19.67464 | -86.90881 | 39985 ft | 461 kts | 358° |
| 2026-04-29 00:22 | 19.73910 | -86.90874 | 39989 ft | 460 kts | 359° |
| 2026-04-29 00:23 | 19.80329 | -86.90856 | 39989 ft | 461 kts | 359° |
| 2026-04-29 00:23 | 19.86769 | -86.90832 | 39988 ft | 462 kts | 359° |
| 2026-04-29 00:24 | 19.93207 | -86.90816 | 39991 ft | 462 kts | 359° |
| 2026-04-29 00:24 | 19.99645 | -86.90797 | 39986 ft | 461 kts | 359° |
| 2026-04-29 00:25 | 20.06025 | -86.90781 | 39985 ft | 460 kts | 359° |
| 2026-04-29 00:25 | 20.12440 | -86.90787 | 39991 ft | 460 kts | 358° |
| 2026-04-29 00:26 | 20.18874 | -86.90864 | 39987 ft | 461 kts | 357° |
| 2026-04-29 00:26 | 20.25293 | -86.90950 | 39999 ft | 462 kts | 358° |
| 2026-04-29 00:27 | 20.31728 | -86.91002 | 40004 ft | 462 kts | 357° |
| 2026-04-29 00:27 | 20.38169 | -86.91078 | 40010 ft | 462 kts | 358° |
| 2026-04-29 00:28 | 20.44596 | -86.91138 | 40008 ft | 462 kts | 357° |
| 2026-04-29 00:28 | 20.51041 | -86.91099 | 40011 ft | 462 kts | 1° |
| 2026-04-29 00:29 | 20.57447 | -86.90539 | 40009 ft | 463 kts | 4° |
| 2026-04-29 00:29 | 20.63888 | -86.89864 | 40012 ft | 462 kts | 4° |
| 2026-04-29 00:30 | 20.70284 | -86.89204 | 40011 ft | 463 kts | 3° |
| 2026-04-29 00:30 | 20.76692 | -86.88547 | 40010 ft | 463 kts | 3° |
| 2026-04-29 00:31 | 20.83113 | -86.87878 | 40012 ft | 464 kts | 3° |
| 2026-04-29 00:31 | 20.89537 | -86.87221 | 40012 ft | 463 kts | 4° |
| 2026-04-29 00:32 | 20.95967 | -86.86549 | 40016 ft | 463 kts | 3° |
| 2026-04-29 00:32 | 21.02410 | -86.85793 | 40010 ft | 463 kts | 6° |
| 2026-04-29 00:33 | 21.08754 | -86.84488 | 40010 ft | 464 kts | 9° |
| 2026-04-29 00:33 | 21.15072 | -86.83032 | 40011 ft | 465 kts | 9° |
| 2026-04-29 00:34 | 21.21424 | -86.81593 | 40006 ft | 465 kts | 9° |
| 2026-04-29 00:34 | 21.27717 | -86.80158 | 40007 ft | 465 kts | 9° |
| 2026-04-29 00:35 | 21.34087 | -86.78692 | 40007 ft | 464 kts | 9° |
| 2026-04-29 00:35 | 21.40413 | -86.77251 | 40010 ft | 464 kts | 9° |
| 2026-04-29 00:36 | 21.46713 | -86.75816 | 40007 ft | 464 kts | 9° |
| 2026-04-29 00:36 | 21.53055 | -86.74365 | 40007 ft | 465 kts | 9° |
| 2026-04-29 00:37 | 21.59393 | -86.72923 | 40007 ft | 465 kts | 9° |
| 2026-04-29 00:37 | 21.65680 | -86.71466 | 40008 ft | 464 kts | 9° |
| 2026-04-29 00:38 | 21.71994 | -86.70009 | 40011 ft | 463 kts | 9° |
| 2026-04-29 00:38 | 21.78309 | -86.68555 | 40008 ft | 464 kts | 8° |
| 2026-04-29 00:39 | 21.84654 | -86.67123 | 40017 ft | 463 kts | 10° |
| 2026-04-29 00:39 | 21.90935 | -86.65659 | 40014 ft | 464 kts | 9° |
| 2026-04-29 00:40 | 21.97266 | -86.64215 | 40011 ft | 463 kts | 9° |
| 2026-04-29 00:40 | 22.03588 | -86.62746 | 40011 ft | 464 kts | 9° |
| 2026-04-29 00:41 | 22.09890 | -86.61295 | 40016 ft | 464 kts | 8° |
| 2026-04-29 00:41 | 22.16201 | -86.59851 | 40016 ft | 463 kts | 9° |
| 2026-04-29 00:42 | 22.22526 | -86.58371 | 40022 ft | 462 kts | 8° |
| 2026-04-29 00:42 | 22.28813 | -86.56924 | 40020 ft | 462 kts | 8° |
| 2026-04-29 00:43 | 22.35081 | -86.55486 | 40021 ft | 461 kts | 9° |
| 2026-04-29 00:43 | 22.41351 | -86.54022 | 40026 ft | 461 kts | 8° |
| 2026-04-29 00:44 | 22.47633 | -86.52570 | 40031 ft | 461 kts | 9° |
| 2026-04-29 00:44 | 22.53905 | -86.51116 | 40035 ft | 461 kts | 9° |
| 2026-04-29 00:45 | 22.60180 | -86.49658 | 40034 ft | 460 kts | 9° |
| 2026-04-29 00:45 | 22.66452 | -86.48196 | 40037 ft | 460 kts | 8° |
| 2026-04-29 00:46 | 22.72733 | -86.46735 | 40037 ft | 459 kts | 8° |
| 2026-04-29 00:46 | 22.78977 | -86.45287 | 40036 ft | 459 kts | 8° |
| 2026-04-29 00:47 | 22.85212 | -86.43833 | 40038 ft | 459 kts | 8° |
| 2026-04-29 00:47 | 22.91463 | -86.42380 | 40035 ft | 458 kts | 9° |
| 2026-04-29 00:48 | 22.97708 | -86.40912 | 40039 ft | 459 kts | 8° |
| 2026-04-29 00:48 | 23.03943 | -86.39445 | 40046 ft | 457 kts | 8° |
| 2026-04-29 00:49 | 23.10172 | -86.37997 | 40050 ft | 458 kts | 8° |
| 2026-04-29 00:49 | 23.16393 | -86.36540 | 40041 ft | 456 kts | 8° |
| 2026-04-29 00:50 | 23.22584 | -86.35081 | 40045 ft | 456 kts | 8° |
| 2026-04-29 00:50 | 23.28843 | -86.33623 | 40039 ft | 457 kts | 9° |
| 2026-04-29 00:51 | 23.35043 | -86.32153 | 40039 ft | 456 kts | 8° |
| 2026-04-29 00:51 | 23.41243 | -86.30695 | 40045 ft | 457 kts | 8° |
| 2026-04-29 00:52 | 23.47440 | -86.29243 | 40046 ft | 456 kts | 8° |
| 2026-04-29 00:52 | 23.53635 | -86.27776 | 40046 ft | 455 kts | 8° |
| 2026-04-29 00:53 | 23.59850 | -86.26319 | 40052 ft | 455 kts | 8° |
| 2026-04-29 00:53 | 23.66030 | -86.24857 | 40046 ft | 454 kts | 8° |
| 2026-04-29 00:54 | 23.72203 | -86.23400 | 40053 ft | 453 kts | 8° |
| 2026-04-29 00:54 | 23.78372 | -86.21925 | 40048 ft | 453 kts | 8° |
| 2026-04-29 00:55 | 23.84508 | -86.20485 | 40048 ft | 453 kts | 8° |
| 2026-04-29 00:55 | 23.90685 | -86.19005 | 40052 ft | 452 kts | 8° |
| 2026-04-29 00:56 | 23.96812 | -86.17521 | 40047 ft | 452 kts | 11° |
| 2026-04-29 00:56 | 24.02847 | -86.15516 | 40050 ft | 455 kts | 16° |
| 2026-04-29 00:57 | 24.08712 | -86.12815 | 40049 ft | 460 kts | 21° |
| 2026-04-29 00:57 | 24.14370 | -86.09493 | 40051 ft | 461 kts | 25° |
| 2026-04-29 00:58 | 24.19929 | -86.06049 | 40053 ft | 461 kts | 25° |
| 2026-04-29 00:58 | 24.25528 | -86.02569 | 40055 ft | 462 kts | 25° |
| 2026-04-29 00:59 | 24.31096 | -85.99103 | 40056 ft | 460 kts | 24° |
| 2026-04-29 00:59 | 24.36647 | -85.95663 | 40056 ft | 459 kts | 25° |
| 2026-04-29 01:00 | 24.42233 | -85.92196 | 40059 ft | 460 kts | 24° |
| 2026-04-29 01:00 | 24.47763 | -85.88757 | 40060 ft | 458 kts | 24° |
| 2026-04-29 01:01 | 24.53317 | -85.85297 | 40063 ft | 457 kts | 24° |
| 2026-04-29 01:01 | 24.58846 | -85.81851 | 40060 ft | 458 kts | 24° |
| 2026-04-29 01:02 | 24.64389 | -85.78387 | 40062 ft | 458 kts | 24° |
| 2026-04-29 01:02 | 24.69881 | -85.74953 | 40064 ft | 457 kts | 24° |
| 2026-04-29 01:03 | 24.75431 | -85.71483 | 40064 ft | 456 kts | 24° |
| 2026-04-29 01:03 | 24.80974 | -85.68010 | 40065 ft | 456 kts | 24° |
| 2026-04-29 01:04 | 24.86479 | -85.64557 | 40066 ft | 456 kts | 24° |
| 2026-04-29 01:04 | 24.91979 | -85.61103 | 40068 ft | 456 kts | 24° |
| 2026-04-29 01:05 | 24.97463 | -85.57658 | 40067 ft | 455 kts | 24° |
| 2026-04-29 01:05 | 25.03006 | -85.54166 | 40073 ft | 456 kts | 24° |
| 2026-04-29 01:06 | 25.08465 | -85.50725 | 40068 ft | 453 kts | 24° |
| 2026-04-29 01:06 | 25.13974 | -85.47258 | 40068 ft | 453 kts | 24° |
| 2026-04-29 01:07 | 25.19418 | -85.43823 | 40073 ft | 453 kts | 23° |
| 2026-04-29 01:07 | 25.24911 | -85.40353 | 40073 ft | 454 kts | 22° |
| 2026-04-29 01:08 | 25.30571 | -85.37337 | 40074 ft | 447 kts | 16° |
| 2026-04-29 01:08 | 25.36439 | -85.35136 | 40075 ft | 442 kts | 9° |
| 2026-04-29 01:09 | 25.42410 | -85.33752 | 40068 ft | 436 kts | 3° |
| 2026-04-29 01:09 | 25.48437 | -85.33031 | 40076 ft | 436 kts | 1° |
| 2026-04-29 01:10 | 25.54437 | -85.32413 | 40075 ft | 434 kts | 1° |
| 2026-04-29 01:10 | 25.60474 | -85.31795 | 40073 ft | 432 kts | 1° |
| 2026-04-29 01:11 | 25.66437 | -85.31187 | 40078 ft | 435 kts | 1° |
| 2026-04-29 01:11 | 25.72489 | -85.30565 | 40330 ft | 437 kts | 1° |
| 2026-04-29 01:11 | 25.75547 | -85.30248 | 40499 ft | 438 kts | 0° |
| 2026-04-29 01:12 | 25.78562 | -85.29936 | 40671 ft | 438 kts | 1° |
| 2026-04-29 01:12 | 25.81590 | -85.29626 | 40804 ft | 439 kts | 0° |
| 2026-04-29 01:12 | 25.84650 | -85.29312 | 40948 ft | 439 kts | 0° |
| 2026-04-29 01:12 | 25.87718 | -85.28994 | 41064 ft | 440 kts | 0° |
| 2026-04-29 01:13 | 25.90748 | -85.28679 | 41068 ft | 440 kts | 0° |
| 2026-04-29 01:13 | 25.96818 | -85.28052 | 41074 ft | 440 kts | 0° |
| 2026-04-29 01:14 | 26.02914 | -85.27423 | 41076 ft | 439 kts | 0° |
| 2026-04-29 01:14 | 26.08988 | -85.26799 | 41070 ft | 438 kts | 0° |
| 2026-04-29 01:15 | 26.15090 | -85.26166 | 41073 ft | 439 kts | 0° |
| 2026-04-29 01:15 | 26.21091 | -85.25543 | 41077 ft | 439 kts | 0° |
| 2026-04-29 01:16 | 26.27136 | -85.24915 | 41067 ft | 439 kts | 0° |
| 2026-04-29 01:16 | 26.33214 | -85.24199 | 41073 ft | 440 kts | 3° |
| 2026-04-29 01:17 | 26.39258 | -85.22904 | 41072 ft | 445 kts | 8° |
| 2026-04-29 01:17 | 26.45230 | -85.20935 | 41073 ft | 449 kts | 13° |
| 2026-04-29 01:18 | 26.51102 | -85.18581 | 41067 ft | 450 kts | 14° |
| 2026-04-29 01:18 | 26.59919 | -85.14998 | 41067 ft | 449 kts | 14° |
| 2026-04-29 01:19 | 26.65794 | -85.12609 | 41074 ft | 449 kts | 14° |
| 2026-04-29 01:19 | 26.71666 | -85.10218 | 41070 ft | 450 kts | 14° |
| 2026-04-29 01:20 | 26.77550 | -85.07821 | 41071 ft | 450 kts | 14° |
| 2026-04-29 01:20 | 26.83437 | -85.05418 | 41066 ft | 450 kts | 14° |
| 2026-04-29 01:21 | 26.89314 | -85.03018 | 41070 ft | 451 kts | 14° |
| 2026-04-29 01:21 | 26.95232 | -85.00600 | 41068 ft | 452 kts | 14° |
| 2026-04-29 01:22 | 27.01147 | -84.98179 | 41067 ft | 452 kts | 14° |
| 2026-04-29 01:22 | 27.07035 | -84.95763 | 41076 ft | 452 kts | 14° |
| 2026-04-29 01:23 | 27.12923 | -84.93347 | 41069 ft | 451 kts | 14° |
| 2026-04-29 01:23 | 27.18828 | -84.90923 | 41075 ft | 452 kts | 14° |
| 2026-04-29 01:24 | 27.24735 | -84.88493 | 41073 ft | 452 kts | 14° |
| 2026-04-29 01:24 | 27.30658 | -84.86051 | 41075 ft | 452 kts | 14° |
| 2026-04-29 01:25 | 27.36568 | -84.83614 | 41082 ft | 452 kts | 14° |
| 2026-04-29 01:25 | 27.42472 | -84.81177 | 41082 ft | 452 kts | 13° |
| 2026-04-29 01:26 | 27.48445 | -84.79115 | 41082 ft | 447 kts | 8° |
| 2026-04-29 01:26 | 27.54515 | -84.77725 | 41074 ft | 442 kts | 3° |
| 2026-04-29 01:27 | 27.60617 | -84.76865 | 41074 ft | 442 kts | 1° |
| 2026-04-29 01:27 | 27.66714 | -84.76070 | 41078 ft | 441 kts | 1° |
| 2026-04-29 01:28 | 27.72818 | -84.75278 | 41077 ft | 441 kts | 1° |
| 2026-04-29 01:28 | 27.78906 | -84.74484 | 41077 ft | 442 kts | 1° |
| 2026-04-29 01:29 | 27.85048 | -84.73683 | 41120 ft | 441 kts | 1° |
| 2026-04-29 01:29 | 27.91128 | -84.72891 | 41048 ft | 440 kts | 1° |
| 2026-04-29 01:30 | 27.97215 | -84.72096 | 41117 ft | 440 kts | 1° |
| 2026-04-29 01:30 | 28.03308 | -84.71295 | 41100 ft | 440 kts | 1° |
| 2026-04-29 01:31 | 28.09392 | -84.70497 | 41061 ft | 440 kts | 1° |
| 2026-04-29 01:31 | 28.15467 | -84.69701 | 41095 ft | 439 kts | 1° |
| 2026-04-29 01:32 | 28.21555 | -84.68901 | 41085 ft | 440 kts | 1° |
| 2026-04-29 01:32 | 28.27642 | -84.68100 | 41058 ft | 440 kts | 1° |
| 2026-04-29 01:33 | 28.33745 | -84.67295 | 41092 ft | 440 kts | 1° |
| 2026-04-29 01:33 | 28.39842 | -84.66492 | 41062 ft | 441 kts | 1° |
| 2026-04-29 01:34 | 28.45957 | -84.65684 | 41087 ft | 442 kts | 1° |
| 2026-04-29 01:34 | 28.52036 | -84.64880 | 41086 ft | 442 kts | 1° |
| 2026-04-29 01:35 | 28.58178 | -84.64067 | 41068 ft | 441 kts | 1° |
| 2026-04-29 01:35 | 28.64256 | -84.63262 | 41078 ft | 442 kts | 1° |
| 2026-04-29 01:36 | 28.70348 | -84.62456 | 41077 ft | 442 kts | 1° |
| 2026-04-29 01:36 | 28.76466 | -84.61643 | 41087 ft | 441 kts | 1° |
| 2026-04-29 01:37 | 28.82529 | -84.60834 | 41071 ft | 438 kts | 1° |
| 2026-04-29 01:37 | 28.88570 | -84.60031 | 41074 ft | 436 kts | 1° |
| 2026-04-29 01:38 | 28.94624 | -84.59224 | 41067 ft | 436 kts | 1° |
| 2026-04-29 01:38 | 29.00644 | -84.58420 | 41061 ft | 437 kts | 1° |
| 2026-04-29 01:39 | 29.06715 | -84.57610 | 41071 ft | 438 kts | 1° |
| 2026-04-29 01:39 | 29.12773 | -84.56800 | 41074 ft | 438 kts | 1° |
| 2026-04-29 01:40 | 29.18811 | -84.55991 | 41077 ft | 437 kts | 1° |
| 2026-04-29 01:40 | 29.24844 | -84.55183 | 41072 ft | 438 kts | 1° |
| 2026-04-29 01:41 | 29.30915 | -84.54369 | 41070 ft | 439 kts | 1° |
| 2026-04-29 01:41 | 29.36963 | -84.53554 | 41069 ft | 439 kts | 1° |
| 2026-04-29 01:42 | 29.43047 | -84.52739 | 41072 ft | 439 kts | 1° |
| 2026-04-29 01:42 | 29.49132 | -84.51917 | 41070 ft | 441 kts | 1° |
| 2026-04-29 01:43 | 29.55211 | -84.51098 | 41077 ft | 441 kts | 1° |
| 2026-04-29 01:43 | 29.61335 | -84.50271 | 41075 ft | 441 kts | 1° |
| 2026-04-29 01:44 | 29.67422 | -84.49447 | 41073 ft | 442 kts | 1° |
| 2026-04-29 01:44 | 29.73537 | -84.48618 | 41075 ft | 442 kts | 1° |
| 2026-04-29 01:45 | 29.79654 | -84.47791 | 41071 ft | 443 kts | 1° |
| 2026-04-29 01:45 | 29.85751 | -84.46963 | 41074 ft | 443 kts | 1° |
| 2026-04-29 01:46 | 29.91884 | -84.46128 | 41070 ft | 444 kts | 1° |
| 2026-04-29 01:46 | 29.98008 | -84.45296 | 41068 ft | 444 kts | 1° |
| 2026-04-29 01:47 | 30.04189 | -84.44451 | 41080 ft | 445 kts | 1° |
| 2026-04-29 01:47 | 30.10324 | -84.43622 | 41082 ft | 445 kts | 1° |
| 2026-04-29 01:48 | 30.16462 | -84.42780 | 41080 ft | 445 kts | 2° |
| 2026-04-29 01:48 | 30.22625 | -84.41929 | 41085 ft | 444 kts | 1° |
| 2026-04-29 01:49 | 30.28774 | -84.41089 | 41075 ft | 444 kts | 1° |
| 2026-04-29 01:49 | 30.34891 | -84.40251 | 41095 ft | 444 kts | 1° |
| 2026-04-29 01:50 | 30.41024 | -84.39410 | 41082 ft | 445 kts | 2° |
| 2026-04-29 01:50 | 30.47204 | -84.38599 | 41085 ft | 444 kts | 359° |
| 2026-04-29 01:51 | 30.53322 | -84.38345 | 41072 ft | 439 kts | 354° |
| 2026-04-29 01:51 | 30.59397 | -84.38785 | 41083 ft | 436 kts | 349° |
| 2026-04-29 01:52 | 30.65373 | -84.39897 | 41088 ft | 433 kts | 344° |
| 2026-04-29 01:52 | 30.71239 | -84.41379 | 41074 ft | 433 kts | 343° |
| 2026-04-29 01:53 | 30.77141 | -84.42896 | 41076 ft | 434 kts | 343° |
| 2026-04-29 01:53 | 30.83019 | -84.44408 | 41073 ft | 433 kts | 343° |
| 2026-04-29 01:54 | 30.88934 | -84.45931 | 41082 ft | 433 kts | 343° |
| 2026-04-29 01:54 | 30.94820 | -84.47451 | 41077 ft | 434 kts | 343° |
| 2026-04-29 01:55 | 31.00726 | -84.48977 | 41080 ft | 434 kts | 343° |
| 2026-04-29 01:55 | 31.06636 | -84.50507 | 41080 ft | 434 kts | 343° |
| 2026-04-29 01:56 | 31.12532 | -84.52035 | 41072 ft | 434 kts | 343° |
| 2026-04-29 01:56 | 31.18409 | -84.53561 | 41063 ft | 433 kts | 343° |
| 2026-04-29 01:57 | 31.24301 | -84.55091 | 41077 ft | 433 kts | 343° |
| 2026-04-29 01:57 | 31.30140 | -84.56611 | 41061 ft | 433 kts | 343° |
| 2026-04-29 01:58 | 31.36021 | -84.58143 | 41070 ft | 433 kts | 343° |
| 2026-04-29 01:58 | 31.41911 | -84.59682 | 41065 ft | 433 kts | 343° |
| 2026-04-29 01:59 | 31.47746 | -84.61491 | 41071 ft | 430 kts | 338° |
| 2026-04-29 01:59 | 31.53329 | -84.63911 | 41070 ft | 428 kts | 334° |
| 2026-04-29 02:00 | 31.58802 | -84.66624 | 41069 ft | 428 kts | 333° |
| 2026-04-29 02:00 | 31.64282 | -84.69361 | 41074 ft | 428 kts | 333° |
| 2026-04-29 02:01 | 31.69766 | -84.72104 | 41070 ft | 427 kts | 333° |
| 2026-04-29 02:01 | 31.75227 | -84.74837 | 41072 ft | 427 kts | 333° |
| 2026-04-29 02:02 | 31.80692 | -84.77577 | 41068 ft | 427 kts | 333° |
| 2026-04-29 02:02 | 31.86124 | -84.80309 | 40940 ft | 428 kts | 333° |
| 2026-04-29 02:03 | 31.88858 | -84.81683 | 40417 ft | 429 kts | 333° |